This is the latest recevied weather packets stored in our database for station/object KE5OYL. If no packets are shown the sender has not sent any weather packets the latest 10 day(s).
| Time | Temp. | Humidity | Pressure | Rain* | Wind** | Luminosity | Snow |
|---|---|---|---|---|---|---|---|
| 1777576799 | 16.11° C | 87% | 1014.3 hPa | 0 mm | - | 93 W/m² | - |
| 1777576498 | 16.11° C | 88% | 1013.9 hPa | 0 mm | - | 95 W/m² | - |
| 1777576195 | 16.11° C | 89% | 1013.3 hPa | 0 mm | - | 102 W/m² | - |
| 1777575890 | 16.11° C | 89% | 1012.6 hPa | 0 mm | - | 164 W/m² | - |
| 1777575587 | 16.11° C | 90% | 1012.6 hPa | 0 mm | - | 113 W/m² | - |
| 1777575284 | 16.11° C | 90% | 1012.5 hPa | 0 mm | - | 132 W/m² | - |
| 1777574979 | 15.56° C | 90% | 1013 hPa | 0 mm | - | 92 W/m² | - |
| 1777574676 | 16.11° C | 91% | 1013.5 hPa | 0 mm | - | 69 W/m² | - |
| 1777574373 | 15.56° C | 91% | 1014 hPa | 0 mm | - | 84 W/m² | - |
| 1777574067 | 15.56° C | 92% | 1013.9 hPa | 0 mm | - | 86 W/m² | - |
| 1777573763 | 15.56° C | 93% | 1013.9 hPa | 0 mm | - | 88 W/m² | - |
| 1777573459 | 16.11° C | 93% | 1014.1 hPa | 0 mm | - | 65 W/m² | - |
| 1777573156 | 15.56° C | 94% | 1014.3 hPa | 0 mm | - | 67 W/m² | - |
| 1777572852 | 15.56° C | 94% | 1014.1 hPa | 0 mm | - | 93 W/m² | - |
| 1777572549 | 15.56° C | 94% | 1013.4 hPa | 0 mm | - | 178 W/m² | - |
| 1777572243 | 15.56° C | 95% | 1013 hPa | 0 mm | - | 166 W/m² | - |
| 1777571939 | 15.56° C | 95% | 1012.8 hPa | 0 mm | - | 192 W/m² | - |
| 1777571634 | 15.56° C | 95% | 1013.1 hPa | 0 mm | - | 150 W/m² | - |
| 1777571331 | 15.56° C | 95% | 1013 hPa | 0 mm | - | 140 W/m² | - |
| 1777571027 | 15.56° C | 95% | 1013.5 hPa | 0 mm | - | 106 W/m² | - |
| 1777570723 | 16.11° C | 95% | 1014 hPa | 0 mm | - | 74 W/m² | - |
| 1777570420 | 16.11° C | 95% | 1014.5 hPa | 1.78 mm | - | 71 W/m² | - |
| 1777570116 | 16.11° C | 95% | 1014.9 hPa | 1.78 mm | - | 92 W/m² | - |
| 1777569812 | 16.11° C | 94% | 1015.3 hPa | 0 mm | - | 120 W/m² | - |
| 1777569508 | 16.11° C | 94% | 1016 hPa | 1.27 mm | - | 83 W/m² | - |
* Rain latest hour (hover to see other rain measurements)
** Current wind speed in m/s (hover to see current wind gust speed)